Time;durP1;ratioP1;P1;durP2;ratioP2;P2;SDS_P1;SDS_P2;PMS_P1;PMS_P2;Temp;Humidity;BMP_temperature;BMP_pressure;BME280_temperature;BME280_humidity;BME280_pressure;Samples;Min_cycle;Max_cycle;Signal;HPM_P1;HPM_P2
2023/05/02 00:00:37;;;;;;;0.20;0.20;;;7.40;99.90;;;;;;5020237;28;20025;-70
2023/05/02 00:03:04;;;;;;;0.15;0.15;;;7.30;99.90;;;;;;5024313;28;20497;-69
2023/05/02 00:05:30;;;;;;;0.20;0.20;;;7.20;99.90;;;;;;5025089;28;20576;-70
2023/05/02 00:07:55;;;;;;;0.20;0.20;;;7.10;99.90;;;;;;5022424;28;20037;-70
2023/05/02 00:10:21;;;;;;;0.20;0.20;;;6.90;99.90;;;;;;5018220;28;20052;-70
2023/05/02 00:12:46;;;;;;;0.22;0.22;;;6.80;99.90;;;;;;5032371;28;20037;-70
2023/05/02 00:15:12;;;;;;;0.20;0.20;;;6.70;99.90;;;;;;5032894;28;20029;-70
2023/05/02 00:17:42;;;;;;;0.10;0.10;;;6.60;99.90;;;;;;5033241;28;20029;-71
2023/05/02 00:20:09;;;;;;;0.20;0.20;;;6.50;99.90;;;;;;5033232;28;20037;-70
2023/05/02 00:22:35;;;;;;;0.20;0.20;;;6.50;99.90;;;;;;5015960;28;20040;-70
2023/05/02 00:25:00;;;;;;;0.20;0.20;;;6.50;99.90;;;;;;5015997;28;20029;-71
2023/05/02 00:27:26;;;;;;;0.20;0.20;;;6.40;99.90;;;;;;5032981;28;20073;-70
2023/05/02 00:29:53;;;;;;;0.20;0.20;;;6.40;99.90;;;;;;5033564;28;20029;-71
2023/05/02 00:32:18;;;;;;;0.20;0.20;;;6.40;99.90;;;;;;5033792;28;20469;-71
2023/05/02 00:34:44;;;;;;;0.20;0.20;;;6.40;99.90;;;;;;5033474;28;20049;-71
2023/05/02 00:37:09;;;;;;;0.10;0.10;;;6.40;99.90;;;;;;5015701;28;20025;-71
2023/05/02 00:39:36;;;;;;;0.20;0.20;;;6.50;99.90;;;;;;5033384;28;20026;-71
2023/05/02 00:42:01;;;;;;;0.20;0.20;;;6.40;99.90;;;;;;5033413;28;20131;-71
2023/05/02 00:44:28;;;;;;;0.20;0.20;;;6.40;99.90;;;;;;5032899;28;20582;-71
2023/05/02 00:46:54;;;;;;;0.20;0.20;;;6.40;99.90;;;;;;5033373;28;20398;-71
2023/05/02 00:49:20;;;;;;;0.13;0.13;;;6.30;99.90;;;;;;5032941;28;20380;-71
2023/05/02 00:51:46;;;;;;;0.20;0.20;;;6.40;99.90;;;;;;5032759;28;20031;-71
2023/05/02 00:54:12;;;;;;;0.20;0.20;;;6.30;99.90;;;;;;5015474;28;20487;-71
2023/05/02 00:56:38;;;;;;;0.20;0.20;;;6.30;99.90;;;;;;5033037;28;20087;-69
2023/05/02 00:59:06;;;;;;;0.20;0.20;;;6.30;99.90;;;;;;5019138;28;20041;-70
2023/05/02 01:01:52;;;;;;;0.20;0.20;;;6.30;99.90;;;;;;5027426;28;20031;-71
2023/05/02 01:04:36;;;;;;;0.20;0.20;;;6.30;99.90;;;;;;5032863;28;20112;-71
2023/05/02 01:07:19;;;;;;;0.20;0.20;;;6.30;99.90;;;;;;5026504;28;20404;-70
2023/05/02 01:10:03;;;;;;;0.20;0.20;;;6.30;99.90;;;;;;5033209;28;20021;-70
2023/05/02 01:12:59;;;;;;;0.20;0.20;;;6.30;99.90;;;;;;5032206;28;20025;-70
2023/05/02 01:15:25;;;;;;;0.20;0.20;;;6.30;99.90;;;;;;5026573;28;20034;-71
2023/05/02 01:17:53;;;;;;;0.10;0.10;;;6.30;99.90;;;;;;5033112;28;20025;-71
2023/05/02 01:20:22;;;;;;;0.20;0.20;;;6.20;99.90;;;;;;5033012;28;20049;-70
2023/05/02 01:22:48;;;;;;;0.20;0.20;;;6.30;99.90;;;;;;5033215;28;20395;-71
2023/05/02 01:25:39;;;;;;;0.17;0.17;;;6.30;99.90;;;;;;5014627;28;20025;-71
2023/05/02 01:28:10;;;;;;;0.20;0.20;;;6.40;99.90;;;;;;5032907;28;20503;-71
2023/05/02 01:30:39;;;;;;;0.30;0.30;;;6.30;99.90;;;;;;5032824;28;20104;-70
2023/05/02 01:33:07;;;;;;;0.20;0.20;;;6.30;99.90;;;;;;5033025;28;20026;-70
2023/05/02 01:35:34;;;;;;;0.20;0.20;;;6.30;99.90;;;;;;5032652;28;20022;-71
2023/05/02 01:38:02;;;;;;;0.10;0.10;;;6.30;99.90;;;;;;5033103;28;20029;-70
2023/05/02 01:40:28;;;;;;;0.20;0.20;;;6.20;99.90;;;;;;5032756;28;20032;-71
2023/05/02 01:42:56;;;;;;;0.10;0.10;;;6.20;99.90;;;;;;5033048;28;20030;-71
2023/05/02 01:45:22;;;;;;;0.20;0.20;;;6.20;99.90;;;;;;5032952;28;20036;-70
2023/05/02 01:47:50;;;;;;;0.20;0.20;;;6.20;99.90;;;;;;5032141;28;20052;-71
2023/05/02 01:50:19;;;;;;;0.20;0.20;;;6.20;99.90;;;;;;5032993;28;20105;-71
2023/05/02 01:52:48;;;;;;;0.20;0.20;;;6.20;99.90;;;;;;5032645;28;20020;-71
2023/05/02 01:55:16;;;;;;;0.20;0.20;;;6.10;99.90;;;;;;5032214;28;20017;-70
2023/05/02 01:57:43;;;;;;;0.30;0.30;;;6.10;99.90;;;;;;5053913;23;20030;31
2023/05/02 02:00:10;;;;;;;0.20;0.20;;;6.20;99.90;;;;;;5030559;28;20049;-68
2023/05/02 02:02:38;;;;;;;0.10;0.10;;;6.10;99.90;;;;;;5032583;28;20071;-68
2023/05/02 02:05:06;;;;;;;0.20;0.20;;;6.00;99.90;;;;;;5032566;28;20030;-67
2023/05/02 02:07:32;;;;;;;0.17;0.17;;;6.00;99.90;;;;;;5032059;28;20037;-67
2023/05/02 02:09:58;;;;;;;0.20;0.20;;;6.00;99.90;;;;;;5032444;28;20096;-67
2023/05/02 02:12:28;;;;;;;0.20;0.20;;;6.00;99.90;;;;;;5034377;28;20022;-67
2023/05/02 02:14:59;;;;;;;0.28;0.28;;;6.00;99.90;;;;;;5036138;28;20057;-67
2023/05/02 02:17:31;;;;;;;0.20;0.20;;;6.00;99.90;;;;;;5019323;28;20028;-67
2023/05/02 02:20:02;;;;;;;0.20;0.20;;;6.00;99.90;;;;;;5035459;28;20029;-67
2023/05/02 02:22:29;;;;;;;0.20;0.20;;;5.90;99.90;;;;;;5036312;28;20024;-67
2023/05/02 02:24:55;;;;;;;0.20;0.20;;;6.00;99.90;;;;;;5036431;28;20456;-67
2023/05/02 02:27:21;;;;;;;0.20;0.20;;;6.00;99.90;;;;;;5036126;28;20032;-67
2023/05/02 02:29:46;;;;;;;0.22;0.22;;;5.90;99.90;;;;;;5036031;28;20026;-67
2023/05/02 02:32:12;;;;;;;0.30;0.30;;;6.00;99.90;;;;;;5035275;28;20471;-68
2023/05/02 02:34:38;;;;;;;0.20;0.20;;;6.00;99.90;;;;;;5035802;28;20021;-68
2023/05/02 02:37:22;;;;;;;0.30;0.30;;;6.00;99.90;;;;;;5035973;28;20029;-67
2023/05/02 02:40:06;;;;;;;0.22;0.22;;;6.00;99.90;;;;;;5035941;28;20410;-67
2023/05/02 02:42:39;;;;;;;0.20;0.20;;;6.00;99.90;;;;;;5032154;28;20033;-67
2023/05/02 02:45:22;;;;;;;0.20;0.20;;;6.00;99.90;;;;;;5015279;28;20029;-68
2023/05/02 02:48:10;;;;;;;0.27;0.27;;;6.00;99.90;;;;;;5015605;28;20076;-67
2023/05/02 02:50:45;;;;;;;0.20;0.20;;;6.00;99.90;;;;;;5015805;28;20261;-67
2023/05/02 02:53:17;;;;;;;0.10;0.10;;;6.00;99.90;;;;;;5015640;28;20022;-68
2023/05/02 02:56:05;;;;;;;0.20;0.20;;;6.00;99.90;;;;;;5015920;28;20049;-67
2023/05/02 02:58:45;;;;;;;0.20;0.20;;;6.10;99.90;;;;;;5014411;28;20038;-67
2023/05/02 03:01:15;;;;;;;0.20;0.20;;;6.00;99.90;;;;;;5015546;28;20033;-67
2023/05/02 03:03:43;;;;;;;0.20;0.20;;;6.10;99.90;;;;;;5015309;28;20428;-67
2023/05/02 03:06:08;;;;;;;0.20;0.20;;;6.10;99.90;;;;;;5014894;28;20053;-67
2023/05/02 03:08:41;;;;;;;0.30;0.30;;;6.10;99.90;;;;;;5015070;28;20058;-67
2023/05/02 03:11:08;;;;;;;0.20;0.20;;;6.00;99.90;;;;;;5028872;28;20075;-67
2023/05/02 03:13:34;;;;;;;0.13;0.13;;;6.00;99.90;;;;;;5034652;28;20057;-67
2023/05/02 03:16:30;;;;;;;0.15;0.15;;;6.10;99.90;;;;;;5034989;28;20022;-67
2023/05/02 03:18:55;;;;;;;0.15;0.15;;;6.10;99.90;;;;;;5034884;28;20029;-68
2023/05/02 03:21:21;;;;;;;0.20;0.20;;;6.10;99.90;;;;;;5034904;28;20028;-68
2023/05/02 03:23:46;;;;;;;0.22;0.22;;;6.10;99.90;;;;;;5033767;28;20109;-67
2023/05/02 03:26:12;;;;;;;0.20;0.20;;;6.20;99.90;;;;;;5034790;28;20515;-68
2023/05/02 03:28:38;;;;;;;0.15;0.15;;;6.10;99.90;;;;;;5034783;28;20048;-67
2023/05/02 03:31:03;;;;;;;0.17;0.17;;;6.10;99.90;;;;;;5034167;28;20075;-67
2023/05/02 03:33:29;;;;;;;0.20;0.20;;;6.10;99.90;;;;;;5034821;28;20028;-68
2023/05/02 03:35:54;;;;;;;0.20;0.20;;;6.10;99.90;;;;;;5034568;28;20429;-68
2023/05/02 03:38:21;;;;;;;0.20;0.20;;;6.10;99.90;;;;;;5033911;28;20029;-67
2023/05/02 03:40:47;;;;;;;0.20;0.20;;;6.10;99.90;;;;;;5034510;28;20026;-67
2023/05/02 03:43:12;;;;;;;0.25;0.25;;;6.10;99.90;;;;;;5034271;28;20500;-67
2023/05/02 03:45:38;;;;;;;0.20;0.20;;;6.10;99.90;;;;;;5034258;28;20067;-67
2023/05/02 03:48:03;;;;;;;0.20;0.20;;;6.10;99.90;;;;;;5033816;28;20036;-67
2023/05/02 03:50:29;;;;;;;0.15;0.15;;;6.00;99.90;;;;;;5033719;28;20037;-67
2023/05/02 03:52:54;;;;;;;0.20;0.20;;;6.10;99.90;;;;;;5034339;28;20031;-67
2023/05/02 03:55:20;;;;;;;0.30;0.30;;;6.10;99.90;;;;;;5034224;28;20021;-68
2023/05/02 03:57:46;;;;;;;0.20;0.20;;;6.20;99.90;;;;;;5034200;28;20396;-67
2023/05/02 04:00:11;;;;;;;0.20;0.20;;;6.20;99.90;;;;;;5032614;28;20076;-66
2023/05/02 04:02:37;;;;;;;0.20;0.20;;;6.10;99.90;;;;;;5034106;28;20021;-67
2023/05/02 04:05:03;;;;;;;0.20;0.20;;;6.10;99.90;;;;;;5033489;28;20057;-67
2023/05/02 04:07:28;;;;;;;0.10;0.10;;;6.10;99.90;;;;;;5033421;28;20038;-67
2023/05/02 04:09:54;;;;;;;0.10;0.10;;;6.20;99.90;;;;;;5033693;28;20021;-67
2023/05/02 04:12:20;;;;;;;0.20;0.20;;;6.20;99.90;;;;;;5033205;28;20021;-68
2023/05/02 04:14:45;;;;;;;0.17;0.17;;;6.20;99.90;;;;;;5034075;28;20033;-67
2023/05/02 04:17:12;;;;;;;0.25;0.25;;;6.20;99.90;;;;;;5033556;28;20386;-67
2023/05/02 04:19:38;;;;;;;0.20;0.20;;;6.20;99.90;;;;;;5033266;28;20025;-67
2023/05/02 04:22:03;;;;;;;0.20;0.20;;;6.30;99.90;;;;;;5033703;28;20505;-68
2023/05/02 04:24:29;;;;;;;0.20;0.20;;;6.30;99.90;;;;;;5033093;28;20025;-68
2023/05/02 04:26:54;;;;;;;0.30;0.30;;;6.30;99.90;;;;;;5033634;28;20066;-67
2023/05/02 04:29:20;;;;;;;0.17;0.17;;;6.20;99.90;;;;;;5033297;28;20104;-67
2023/05/02 04:31:45;;;;;;;0.20;0.20;;;6.30;99.90;;;;;;5033393;28;20112;-67
2023/05/02 04:34:11;;;;;;;0.20;0.20;;;6.20;99.90;;;;;;5032974;28;20471;-67
2023/05/02 04:36:37;;;;;;;0.30;0.30;;;6.30;99.90;;;;;;5033246;28;20029;-68
2023/05/02 04:39:05;;;;;;;0.20;0.20;;;6.30;99.90;;;;;;5033681;28;20037;-67
2023/05/02 04:41:31;;;;;;;0.10;0.10;;;6.30;99.90;;;;;;5033679;28;20036;-67
2023/05/02 04:43:57;;;;;;;0.20;0.20;;;6.30;99.90;;;;;;5032702;28;20434;-67
2023/05/02 04:46:22;;;;;;;0.20;0.20;;;6.30;99.90;;;;;;5033275;28;20034;-67
2023/05/02 04:48:48;;;;;;;0.20;0.20;;;6.30;99.90;;;;;;5032966;28;20033;-67
2023/05/02 04:51:13;;;;;;;0.20;0.20;;;6.30;99.90;;;;;;5033306;28;20024;-68
2023/05/02 04:53:39;;;;;;;0.20;0.20;;;6.30;99.90;;;;;;5033202;28;20029;-67
2023/05/02 04:56:05;;;;;;;0.20;0.20;;;6.40;99.90;;;;;;5032800;28;20097;-67
2023/05/02 04:58:31;;;;;;;0.20;0.20;;;6.40;99.90;;;;;;5032931;28;20460;-67
2023/05/02 05:00:57;;;;;;;0.20;0.20;;;6.40;99.90;;;;;;5032902;28;20041;-67
2023/05/02 05:03:23;;;;;;;0.20;0.20;;;6.40;99.90;;;;;;5032723;28;20482;-67
2023/05/02 05:05:49;;;;;;;0.20;0.20;;;6.50;99.90;;;;;;5033022;28;20045;-67
2023/05/02 05:08:14;;;;;;;0.20;0.20;;;6.40;99.90;;;;;;5032265;28;20111;-67
2023/05/02 05:10:40;;;;;;;0.20;0.20;;;6.50;99.90;;;;;;5032966;28;20471;-67
2023/05/02 05:13:05;;;;;;;0.20;0.20;;;6.50;99.90;;;;;;5032943;28;20020;-67
2023/05/02 05:15:31;;;;;;;0.20;0.20;;;6.50;99.90;;;;;;5032688;28;20054;-67
2023/05/02 05:17:57;;;;;;;0.30;0.30;;;6.50;99.90;;;;;;5032473;28;20045;-67
2023/05/02 05:20:23;;;;;;;0.10;0.10;;;6.60;99.90;;;;;;5032218;28;20029;-67
2023/05/02 05:22:49;;;;;;;0.20;0.20;;;6.60;99.90;;;;;;5032804;28;20037;-67
2023/05/02 05:25:14;;;;;;;0.20;0.20;;;6.60;99.90;;;;;;5032634;28;20025;-67
2023/05/02 05:27:40;;;;;;;0.25;0.25;;;6.70;99.90;;;;;;5032964;28;20025;-67
2023/05/02 05:30:07;;;;;;;0.20;0.20;;;6.70;99.90;;;;;;5032882;28;20033;-67
2023/05/02 05:32:33;;;;;;;0.20;0.20;;;6.80;99.90;;;;;;5032369;28;20478;-67
2023/05/02 05:34:58;;;;;;;0.10;0.10;;;6.80;99.90;;;;;;5032812;28;20034;-68
2023/05/02 05:37:24;;;;;;;0.20;0.20;;;6.80;99.90;;;;;;5032867;28;20033;-68
2023/05/02 05:39:50;;;;;;;0.10;0.10;;;6.90;99.90;;;;;;5032988;28;20387;-68
2023/05/02 05:42:15;;;;;;;0.20;0.20;;;6.90;99.90;;;;;;5032598;28;20059;-68
2023/05/02 05:44:41;;;;;;;0.20;0.20;;;7.00;99.90;;;;;;5032713;28;20022;-67
2023/05/02 05:47:06;;;;;;;0.20;0.20;;;7.00;99.90;;;;;;5033397;28;20037;-67
2023/05/02 05:49:35;;;;;;;0.20;0.20;;;7.10;99.90;;;;;;5036337;28;20033;-67
2023/05/02 05:52:00;;;;;;;0.20;0.20;;;7.10;99.90;;;;;;5036125;28;20026;-67
2023/05/02 05:54:26;;;;;;;0.20;0.20;;;7.10;99.90;;;;;;5036702;28;20398;-67
2023/05/02 05:56:52;;;;;;;0.20;0.20;;;7.20;99.90;;;;;;5036762;28;20091;-67
2023/05/02 05:59:17;;;;;;;0.20;0.20;;;7.10;99.90;;;;;;5036185;28;20037;-68
2023/05/02 06:01:43;;;;;;;0.30;0.30;;;7.10;99.90;;;;;;5036402;28;20029;-67
2023/05/02 06:04:08;;;;;;;0.20;0.20;;;7.20;99.90;;;;;;5035981;28;20112;-68
2023/05/02 06:06:34;;;;;;;0.15;0.15;;;7.20;99.90;;;;;;5036162;28;20025;-67
2023/05/02 06:09:00;;;;;;;0.10;0.10;;;7.10;99.90;;;;;;5036080;28;20057;-67
2023/05/02 06:11:25;;;;;;;0.20;0.20;;;7.10;99.90;;;;;;5036209;28;20069;-67
2023/05/02 06:13:52;;;;;;;0.17;0.17;;;7.20;99.90;;;;;;5036446;28;20060;-67
2023/05/02 06:16:18;;;;;;;0.20;0.20;;;7.30;99.90;;;;;;5035602;28;20038;-67
2023/05/02 06:18:44;;;;;;;0.20;0.20;;;7.40;99.90;;;;;;5036012;28;20072;-67
2023/05/02 06:21:09;;;;;;;0.20;0.20;;;7.40;99.90;;;;;;5036012;28;20069;-67
2023/05/02 06:23:35;;;;;;;0.30;0.30;;;7.40;99.90;;;;;;5035987;28;20402;-67
2023/05/02 06:26:02;;;;;;;0.20;0.20;;;7.30;99.90;;;;;;5035902;28;20142;-67
2023/05/02 06:28:28;;;;;;;0.10;0.10;;;7.40;99.90;;;;;;5035565;28;20216;-67
2023/05/02 06:30:58;;;;;;;0.22;0.22;;;7.40;99.90;;;;;;5035827;28;20101;-67
2023/05/02 06:33:23;;;;;;;0.25;0.25;;;7.50;99.90;;;;;;5036031;28;20100;-67
2023/05/02 06:35:52;;;;;;;0.20;0.20;;;7.70;99.90;;;;;;5035712;28;20120;-68
2023/05/02 06:38:18;;;;;;;0.20;0.20;;;7.90;99.90;;;;;;5035110;28;20034;-67
2023/05/02 06:40:46;;;;;;;0.20;0.20;;;8.00;99.90;;;;;;5036069;28;20521;-68
2023/05/02 06:43:12;;;;;;;0.20;0.20;;;8.00;99.90;;;;;;5035662;28;20040;-67
2023/05/02 06:45:39;;;;;;;0.20;0.20;;;8.00;99.90;;;;;;5035551;28;20037;-67
2023/05/02 06:48:05;;;;;;;0.20;0.20;;;7.80;99.90;;;;;;5035674;28;20108;-67
2023/05/02 06:50:30;;;;;;;0.25;0.25;;;7.80;99.90;;;;;;5034961;28;20128;-67
2023/05/02 06:52:56;;;;;;;0.20;0.20;;;7.90;99.90;;;;;;5035649;28;20499;-67
2023/05/02 06:55:21;;;;;;;0.10;0.10;;;7.80;99.90;;;;;;5035141;28;20109;-67
2023/05/02 06:57:51;;;;;;;0.20;0.20;;;7.80;99.90;;;;;;5034944;28;20112;-68
2023/05/02 07:00:18;;;;;;;0.17;0.17;;;7.90;99.90;;;;;;5035574;28;20033;-68
2023/05/02 07:02:47;;;;;;;0.20;0.20;;;8.00;99.90;;;;;;5035205;28;20021;-68
2023/05/02 07:05:16;;;;;;;0.10;0.10;;;7.80;99.90;;;;;;5034664;28;20028;-67
2023/05/02 07:07:42;;;;;;;0.20;0.20;;;7.90;99.90;;;;;;5034941;28;20028;-68
2023/05/02 07:10:08;;;;;;;0.20;0.20;;;8.00;99.90;;;;;;5035359;28;20021;-67
2023/05/02 07:12:34;;;;;;;0.20;0.20;;;8.00;99.90;;;;;;5034511;28;20395;-67
2023/05/02 07:15:00;;;;;;;0.20;0.20;;;8.00;99.90;;;;;;5035016;28;20025;-67
2023/05/02 07:17:26;;;;;;;0.20;0.20;;;8.00;99.90;;;;;;5034944;28;20025;-67
2023/05/02 07:19:51;;;;;;;0.30;0.30;;;8.10;99.90;;;;;;5034640;28;20032;-67
2023/05/02 07:22:17;;;;;;;0.20;0.20;;;8.20;99.90;;;;;;5034865;28;20025;-67
2023/05/02 07:24:43;;;;;;;0.30;0.30;;;8.20;99.90;;;;;;5034865;28;20038;-67
2023/05/02 07:27:10;;;;;;;0.20;0.20;;;8.20;99.90;;;;;;5035197;28;20025;-67
2023/05/02 07:29:35;;;;;;;0.30;0.30;;;8.20;99.90;;;;;;5034625;28;20434;-67
2023/05/02 07:32:02;;;;;;;0.10;0.10;;;8.30;99.90;;;;;;5034754;28;20026;-67
2023/05/02 07:34:27;;;;;;;0.20;0.20;;;8.30;99.90;;;;;;5034378;28;20022;-67
2023/05/02 07:36:53;;;;;;;0.20;0.20;;;8.40;99.90;;;;;;5034865;28;20029;-67
2023/05/02 07:39:18;;;;;;;0.20;0.20;;;8.40;99.90;;;;;;5034450;28;20057;-67
2023/05/02 07:41:44;;;;;;;0.10;0.10;;;8.50;99.90;;;;;;5034034;28;20108;-67
2023/05/02 07:44:10;;;;;;;0.30;0.30;;;8.50;99.90;;;;;;5034419;28;20030;-68
2023/05/02 07:46:36;;;;;;;0.20;0.20;;;8.40;99.90;;;;;;5034918;28;20029;-67
2023/05/02 07:49:02;;;;;;;0.28;0.28;;;8.40;99.90;;;;;;5034428;28;20025;-67
2023/05/02 07:51:28;;;;;;;0.20;0.20;;;8.30;99.90;;;;;;5034594;28;20021;-67
2023/05/02 07:53:57;;;;;;;0.25;0.25;;;8.30;99.90;;;;;;5033740;28;20470;-67
2023/05/02 07:56:23;;;;;;;0.20;0.20;;;8.10;99.90;;;;;;5034527;28;20032;-67
2023/05/02 07:58:50;;;;;;;0.20;0.20;;;8.10;99.90;;;;;;5052976;23;20454;-71
2023/05/02 08:01:16;;;;;;;0.20;0.20;;;8.20;99.90;;;;;;5013154;28;20176;-71
2023/05/02 08:03:42;;;;;;;0.20;0.20;;;8.30;99.90;;;;;;5014671;28;20076;-71
2023/05/02 08:06:08;;;;;;;0.10;0.10;;;8.40;99.90;;;;;;5013888;28;20025;-72
2023/05/02 08:08:34;;;;;;;0.22;0.22;;;8.40;99.90;;;;;;5014228;28;20030;-71
2023/05/02 08:11:00;;;;;;;0.20;0.20;;;8.40;99.90;;;;;;5013746;28;20472;-71
2023/05/02 08:13:26;;;;;;;0.20;0.20;;;8.50;99.90;;;;;;5014214;28;20123;-72
2023/05/02 08:15:56;;;;;;;0.20;0.20;;;8.60;99.90;;;;;;5014073;28;20480;-72
2023/05/02 08:18:25;;;;;;;0.20;0.20;;;8.60;99.90;;;;;;5015515;28;20052;-72
2023/05/02 08:20:51;;;;;;;0.20;0.20;;;8.70;99.90;;;;;;5013547;28;20026;-72
2023/05/02 08:23:17;;;;;;;0.20;0.20;;;8.70;99.90;;;;;;5012798;28;20032;-72
2023/05/02 08:25:43;;;;;;;0.28;0.28;;;8.60;99.90;;;;;;5013933;28;20025;-72
2023/05/02 08:28:08;;;;;;;0.13;0.13;;;8.50;99.90;;;;;;5014461;28;20494;-72
2023/05/02 08:30:34;;;;;;;0.17;0.17;;;8.60;99.90;;;;;;5013752;28;20549;-72
2023/05/02 08:33:00;;;;;;;0.15;0.15;;;8.70;99.90;;;;;;5013443;28;20018;-72
2023/05/02 08:35:27;;;;;;;0.20;0.20;;;8.80;99.90;;;;;;5013864;28;20037;-72
2023/05/02 08:37:53;;;;;;;0.20;0.20;;;8.90;99.90;;;;;;5013754;28;20022;-73
2023/05/02 08:40:21;;;;;;;0.20;0.20;;;8.90;99.90;;;;;;5013672;28;20026;-73
2023/05/02 08:42:46;;;;;;;0.20;0.20;;;9.00;99.90;;;;;;5013662;28;20026;-72
2023/05/02 08:45:13;;;;;;;0.10;0.10;;;9.20;99.90;;;;;;5013300;28;20045;-72
2023/05/02 08:47:42;;;;;;;0.20;0.20;;;9.20;99.90;;;;;;5013617;28;20046;-73
2023/05/02 08:50:10;;;;;;;0.25;0.25;;;9.10;99.90;;;;;;5013761;28;20026;-73
2023/05/02 08:52:37;;;;;;;0.13;0.13;;;9.30;99.90;;;;;;5013554;28;20026;-72
2023/05/02 08:55:05;;;;;;;0.10;0.10;;;9.40;99.90;;;;;;5013567;28;20030;-72
2023/05/02 08:57:31;;;;;;;0.20;0.20;;;9.40;99.90;;;;;;5012928;28;20026;-72
2023/05/02 08:59:57;;;;;;;0.20;0.20;;;9.40;99.90;;;;;;5013282;28;20055;-72
2023/05/02 09:02:47;;;;;;;0.10;0.10;;;9.30;99.90;;;;;;5013533;28;20076;-72
2023/05/02 09:05:19;;;;;;;0.20;0.20;;;9.40;99.90;;;;;;5013442;28;20034;-72
2023/05/02 09:07:47;;;;;;;0.20;0.20;;;9.60;99.90;;;;;;5011792;28;20376;-72
2023/05/02 09:10:13;;;;;;;0.10;0.10;;;9.90;99.90;;;;;;5012098;28;20026;-72
2023/05/02 09:12:39;;;;;;;0.20;0.20;;;9.90;99.90;;;;;;5013507;28;20068;-72
2023/05/02 09:15:10;;;;;;;0.20;0.20;;;9.80;99.90;;;;;;5013495;28;20423;-72
2023/05/02 09:17:43;;;;;;;0.17;0.17;;;9.90;99.90;;;;;;4992759;28;20027;-72
2023/05/02 09:20:11;;;;;;;0.20;0.20;;;9.90;99.90;;;;;;4993517;28;20026;-72
2023/05/02 09:22:37;;;;;;;0.20;0.20;;;9.70;99.90;;;;;;5011881;28;20053;-72
2023/05/02 09:25:07;;;;;;;0.10;0.10;;;9.60;99.90;;;;;;5016448;28;20593;-73
2023/05/02 09:27:50;;;;;;;0.20;0.20;;;9.70;99.90;;;;;;5017111;28;20384;-72
2023/05/02 09:30:23;;;;;;;0.20;0.20;;;9.90;99.90;;;;;;5016962;28;20022;-72
2023/05/02 09:32:54;;;;;;;;;;;9.90;99.90;;;;;;5016147;28;20261;-72
2023/05/02 09:35:23;;;;;;;0.20;0.20;;;9.90;99.90;;;;;;5016713;28;19995;-72
2023/05/02 09:37:59;;;;;;;0.10;0.10;;;9.60;99.90;;;;;;5016792;28;20026;-72
2023/05/02 09:40:26;;;;;;;0.13;0.13;;;9.30;99.90;;;;;;5016952;28;20029;-72
2023/05/02 09:42:51;;;;;;;0.20;0.20;;;9.20;99.90;;;;;;5017004;28;20368;-72
2023/05/02 09:45:24;;;;;;;0.20;0.20;;;9.40;99.90;;;;;;5015012;28;20040;-72
2023/05/02 09:47:50;;;;;;;0.30;0.30;;;9.50;99.90;;;;;;5017106;28;20026;-72
2023/05/02 09:50:49;;;;;;;0.20;0.20;;;9.80;99.90;;;;;;5016569;28;20022;-72
2023/05/02 09:53:14;;;;;;;0.20;0.20;;;10.00;99.90;;;;;;4994503;28;20049;-72
2023/05/02 09:55:40;;;;;;;0.20;0.20;;;10.00;99.90;;;;;;5016345;28;20014;-72
2023/05/02 09:58:06;;;;;;;0.10;0.10;;;10.10;99.90;;;;;;5016631;28;20037;-72
2023/05/02 10:00:39;;;;;;;0.20;0.20;;;10.10;99.90;;;;;;5016328;28;20069;-72
2023/05/02 10:03:08;;;;;;;0.20;0.20;;;10.00;99.90;;;;;;5016547;28;20499;-72
2023/05/02 10:05:37;;;;;;;0.20;0.20;;;10.10;99.90;;;;;;5016456;28;20618;-72
2023/05/02 10:08:07;;;;;;;0.20;0.20;;;10.40;99.90;;;;;;5016354;28;20487;-72
2023/05/02 10:10:38;;;;;;;0.20;0.20;;;10.70;99.90;;;;;;5015825;28;20105;-72
2023/05/02 10:13:05;;;;;;;0.28;0.28;;;10.60;99.90;;;;;;5015101;28;20017;-72
2023/05/02 10:15:32;;;;;;;0.17;0.17;;;10.30;99.90;;;;;;5016200;28;20018;-72
2023/05/02 10:18:02;;;;;;;0.13;0.13;;;10.10;99.90;;;;;;5016347;28;20033;-72
2023/05/02 10:20:34;;;;;;;0.20;0.20;;;10.40;99.90;;;;;;5015527;28;20072;-73
2023/05/02 10:23:03;;;;;;;0.20;0.20;;;10.40;99.90;;;;;;5016388;28;20454;-72
2023/05/02 10:25:29;;;;;;;0.17;0.17;;;10.40;99.90;;;;;;5016171;28;20037;-72
2023/05/02 10:27:58;;;;;;;0.10;0.10;;;10.20;99.90;;;;;;5015381;28;20030;-72
2023/05/02 10:30:25;;;;;;;0.10;0.10;;;10.10;99.90;;;;;;5002089;28;20026;-72
2023/05/02 10:32:53;;;;;;;0.20;0.20;;;10.20;99.90;;;;;;5003810;28;20515;-72
2023/05/02 10:35:19;;;;;;;0.30;0.30;;;10.40;99.90;;;;;;5010388;28;20491;-72
2023/05/02 10:37:47;;;;;;;0.10;0.10;;;10.60;99.90;;;;;;5003100;28;20101;-72
2023/05/02 10:40:13;;;;;;;0.20;0.20;;;10.70;99.90;;;;;;4999581;28;20014;-72
2023/05/02 10:42:44;;;;;;;0.10;0.10;;;10.80;99.90;;;;;;5008282;28;20080;-71
2023/05/02 10:45:28;;;;;;;0.20;0.20;;;10.60;99.90;;;;;;5022099;28;20025;-72
2023/05/02 10:48:16;;;;;;;0.22;0.22;;;10.80;99.90;;;;;;5003133;28;20065;-72
2023/05/02 10:50:52;;;;;;;0.20;0.20;;;10.80;99.90;;;;;;4997937;28;20030;-72
2023/05/02 10:53:43;;;;;;;0.20;0.20;;;10.80;99.90;;;;;;4999499;28;20014;-71
2023/05/02 10:56:20;;;;;;;0.20;0.20;;;11.40;99.90;;;;;;4998933;28;20050;-73
2023/05/02 10:59:13;;;;;;;0.20;0.20;;;11.70;99.90;;;;;;5000574;28;20034;-73
2023/05/02 11:01:39;;;;;;;0.10;0.10;;;11.40;99.90;;;;;;5015281;28;20029;-73
2023/05/02 11:04:10;;;;;;;0.10;0.10;;;11.00;99.90;;;;;;5014006;28;20036;-73
2023/05/02 11:06:56;;;;;;;0.20;0.20;;;11.10;99.90;;;;;;5013980;28;20037;-73
2023/05/02 11:09:21;;;;;;;0.30;0.30;;;11.10;99.90;;;;;;5014667;28;20502;-73
2023/05/02 11:11:49;;;;;;;0.20;0.20;;;11.00;99.90;;;;;;5015225;28;20050;-72
2023/05/02 11:14:37;;;;;;;0.20;0.20;;;11.00;99.90;;;;;;5015057;28;20481;-73
2023/05/02 11:17:03;;;;;;;0.20;0.20;;;11.20;99.90;;;;;;5014719;28;20068;-73
2023/05/02 11:19:52;;;;;;;0.20;0.20;;;11.00;99.90;;;;;;5014442;28;20026;-72
2023/05/02 11:22:18;;;;;;;0.20;0.20;;;10.90;99.90;;;;;;5014336;28;20095;-73
2023/05/02 11:24:48;;;;;;;0.25;0.25;;;10.90;99.90;;;;;;5014899;28;20026;-73
2023/05/02 11:27:37;;;;;;;0.15;0.15;;;10.60;99.90;;;;;;5014175;28;20041;-72
2023/05/02 11:30:09;;;;;;;0.30;0.30;;;10.40;99.90;;;;;;5021013;28;20158;-72
2023/05/02 11:32:44;;;;;;;0.20;0.20;;;10.50;99.90;;;;;;5013504;28;20041;-72
2023/05/02 11:35:25;;;;;;;0.20;0.20;;;11.00;99.90;;;;;;5014639;28;20049;-73
2023/05/02 11:38:11;;;;;;;0.20;0.20;;;11.80;99.90;;;;;;5014775;28;20101;-72
2023/05/02 11:40:36;;;;;;;0.20;0.20;;;12.30;99.90;;;;;;5014161;28;20025;-72
2023/05/02 11:43:12;;;;;;;0.20;0.20;;;12.20;99.90;;;;;;5014599;28;20399;-72
2023/05/02 11:45:39;;;;;;;0.17;0.17;;;12.40;99.90;;;;;;5013964;28;20096;-72
2023/05/02 11:48:05;;;;;;;0.20;0.20;;;12.00;99.90;;;;;;5014789;28;20113;-72
2023/05/02 11:50:32;;;;;;;0.20;0.20;;;11.70;99.90;;;;;;5014053;28;20022;-73
2023/05/02 11:52:58;;;;;;;0.20;0.20;;;12.10;99.90;;;;;;5014543;28;20029;-73
2023/05/02 11:55:24;;;;;;;0.10;0.10;;;12.30;99.90;;;;;;5013297;28;20018;-72
2023/05/02 11:57:50;;;;;;;0.20;0.20;;;12.60;99.90;;;;;;5014259;28;20101;-73
2023/05/02 12:00:16;;;;;;;0.10;0.10;;;12.50;99.90;;;;;;5013723;28;20083;-73
2023/05/02 12:02:44;;;;;;;0.13;0.13;;;12.40;99.90;;;;;;5014456;28;20422;-73
2023/05/02 12:05:12;;;;;;;0.22;0.22;;;12.20;99.90;;;;;;5014321;28;20029;-73
2023/05/02 12:07:39;;;;;;;0.20;0.20;;;12.10;99.90;;;;;;5013780;28;20498;-72
2023/05/02 12:10:08;;;;;;;0.20;0.20;;;12.40;99.90;;;;;;5014128;28;20030;-73
2023/05/02 12:12:35;;;;;;;0.20;0.20;;;12.30;99.90;;;;;;5014219;28;20025;-73
2023/05/02 12:15:08;;;;;;;0.20;0.20;;;12.60;99.90;;;;;;5014106;28;20516;-73
2023/05/02 12:17:37;;;;;;;0.20;0.20;;;13.10;99.90;;;;;;5013959;28;20026;-72
2023/05/02 12:20:04;;;;;;;0.20;0.20;;;12.30;99.90;;;;;;5014014;28;20034;-73
2023/05/02 12:22:30;;;;;;;0.20;0.20;;;11.50;99.90;;;;;;5012049;28;20026;-72
2023/05/02 12:24:56;;;;;;;0.28;0.28;;;11.30;99.90;;;;;;5012731;28;20113;-72
2023/05/02 12:27:21;;;;;;;0.10;0.10;;;11.60;99.90;;;;;;5014005;28;20444;-73
2023/05/02 12:29:48;;;;;;;0.20;0.20;;;12.00;99.90;;;;;;5013746;28;20064;-72
2023/05/02 12:32:25;;;;;;;0.20;0.20;;;12.50;99.90;;;;;;5013749;28;20049;-73
2023/05/02 12:34:51;;;;;;;0.20;0.20;;;13.20;99.90;;;;;;5013245;28;20021;-72
2023/05/02 12:37:23;;;;;;;0.20;0.20;;;12.70;99.90;;;;;;5013841;28;20026;-72
2023/05/02 12:39:48;;;;;;;0.20;0.20;;;12.00;99.90;;;;;;5014087;28;20373;-73
2023/05/02 12:42:15;;;;;;;0.28;0.28;;;12.50;99.90;;;;;;5012360;28;20029;-72
2023/05/02 12:44:43;;;;;;;0.20;0.20;;;14.10;99.90;;;;;;5013716;28;20037;-73
2023/05/02 12:47:10;;;;;;;0.17;0.17;;;14.50;99.90;;;;;;5013137;28;20030;-72
2023/05/02 12:49:52;;;;;;;0.10;0.10;;;13.60;99.90;;;;;;5013331;28;20025;-73
2023/05/02 12:52:19;;;;;;;0.20;0.20;;;13.10;99.90;;;;;;5013536;28;20067;-72
2023/05/02 12:54:45;;;;;;;0.10;0.10;;;12.40;99.90;;;;;;5013351;28;20155;-73
2023/05/02 12:57:22;;;;;;;0.20;0.20;;;13.20;99.90;;;;;;5013345;28;20568;-72
2023/05/02 12:59:51;;;;;;;0.10;0.10;;;13.80;99.90;;;;;;5012889;28;20026;-72
2023/05/02 13:02:17;;;;;;;0.20;0.20;;;14.40;99.90;;;;;;5013231;28;20084;-73